createdAt,value
2023-05-24T00:00:37.945Z,30.03
2023-05-24T00:03:05.553Z,30.18
2023-05-24T00:05:32.921Z,29.84
2023-05-24T00:08:00.012Z,29.55
2023-05-24T00:10:26.843Z,30.55
2023-05-24T00:12:54.205Z,30.47
2023-05-24T00:15:21.553Z,30.38
2023-05-24T00:17:48.455Z,30.33
2023-05-24T00:20:15.592Z,30.59
2023-05-24T00:22:42.625Z,30.39
2023-05-24T00:25:10.252Z,30.61
2023-05-24T00:27:37.780Z,28.86
2023-05-24T00:30:06.438Z,29.91
2023-05-24T00:32:33.449Z,28.60
2023-05-24T00:35:00.413Z,29.96
2023-05-24T00:37:27.585Z,29.58
2023-05-24T00:39:54.461Z,29.08
2023-05-24T00:42:21.452Z,29.74
2023-05-24T00:44:48.360Z,29.50
2023-05-24T00:47:16.355Z,29.30
2023-05-24T00:49:43.386Z,27.87
2023-05-24T00:52:10.514Z,29.84
2023-05-24T00:54:40.664Z,29.86
2023-05-24T00:57:07.820Z,30.27
2023-05-24T00:59:35.190Z,29.28
2023-05-24T01:02:02.148Z,30.33
2023-05-24T01:04:29.385Z,30.50
2023-05-24T01:07:29.837Z,29.65
2023-05-24T01:10:06.748Z,29.02
2023-05-24T01:12:39.639Z,28.81
2023-05-24T01:15:22.693Z,29.57
2023-05-24T01:18:05.336Z,30.06
2023-05-24T01:20:34.048Z,28.75
2023-05-24T01:24:00.597Z,28.99
2023-05-24T01:26:54.875Z,27.87
2023-05-24T01:29:23.149Z,27.12
2023-05-24T01:31:50.436Z,28.34
2023-05-24T01:34:18.343Z,28.03
2023-05-24T01:36:47.553Z,27.85
2023-05-24T01:39:14.549Z,27.08
2023-05-24T01:42:07.720Z,30.17
2023-05-24T01:44:54.920Z,29.96
2023-05-24T01:47:43.584Z,31.29
2023-05-24T01:50:39.360Z,29.97
2023-05-24T01:53:12.913Z,29.29
2023-05-24T01:55:40.751Z,30.85
2023-05-24T01:58:10.443Z,29.13
2023-05-24T02:00:39.374Z,30.65
2023-05-24T02:03:07.038Z,28.83
2023-05-24T02:05:34.149Z,29.40
2023-05-24T02:08:05.939Z,29.17
2023-05-24T02:10:32.974Z,27.86
2023-05-24T02:13:00.375Z,30.56
2023-05-24T02:15:30.437Z,29.19
2023-05-24T02:17:58.422Z,29.75
2023-05-24T02:20:25.440Z,28.43
2023-05-24T02:22:52.485Z,29.01
2023-05-24T02:25:19.518Z,28.56
2023-05-24T02:27:47.856Z,30.42
2023-05-24T02:30:14.847Z,28.11
2023-05-24T02:32:42.043Z,29.42
2023-05-24T02:35:08.970Z,29.47
2023-05-24T02:37:36.329Z,27.85
2023-05-24T02:40:04.213Z,28.53
2023-05-24T02:42:31.330Z,28.89
2023-05-24T02:44:58.220Z,26.38
2023-05-24T02:47:27.001Z,27.90
2023-05-24T02:49:54.595Z,28.68
2023-05-24T02:52:21.785Z,30.66
2023-05-24T02:54:51.980Z,29.15
2023-05-24T02:57:21.801Z,30.85
2023-05-24T02:59:48.768Z,30.47
2023-05-24T03:02:18.075Z,28.49
2023-05-24T03:04:45.302Z,31.18
2023-05-24T03:07:14.254Z,31.08
2023-05-24T03:09:42.466Z,27.21
2023-05-24T03:12:09.567Z,29.40
2023-05-24T03:14:36.472Z,27.05
2023-05-24T03:17:03.505Z,27.70
2023-05-24T03:19:30.650Z,29.46
2023-05-24T03:21:58.185Z,29.37
2023-05-24T03:24:26.100Z,28.56
2023-05-24T03:26:53.495Z,30.29
2023-05-24T03:29:20.907Z,30.46
2023-05-24T03:31:48.815Z,29.24
2023-05-24T03:34:15.844Z,30.70
2023-05-24T03:36:43.332Z,28.60
2023-05-24T03:39:10.439Z,28.62
2023-05-24T03:41:53.553Z,30.25
2023-05-24T03:44:20.746Z,30.60
2023-05-24T03:46:47.636Z,30.30
2023-05-24T03:49:14.739Z,27.72
2023-05-24T03:51:41.618Z,29.78
2023-05-24T03:54:08.562Z,30.40
2023-05-24T03:56:35.579Z,28.87
2023-05-24T03:59:04.069Z,29.56
2023-05-24T04:01:36.572Z,29.93
2023-05-24T04:04:04.495Z,30.58
2023-05-24T04:06:31.585Z,30.83
2023-05-24T04:09:01.150Z,29.67
2023-05-24T04:11:29.329Z,30.34
2023-05-24T04:13:58.296Z,29.31
2023-05-24T04:16:26.532Z,29.92
2023-05-24T04:18:55.363Z,29.04
2023-05-24T04:21:22.978Z,29.77
2023-05-24T04:23:49.911Z,29.16
2023-05-24T04:26:17.863Z,27.53
2023-05-24T04:28:45.760Z,28.11
2023-05-24T04:31:13.951Z,28.93
2023-05-24T04:33:41.565Z,26.72
2023-05-24T04:36:11.621Z,29.48
2023-05-24T04:38:39.699Z,27.93
2023-05-24T04:41:07.209Z,29.53
2023-05-24T04:43:35.061Z,28.18
2023-05-24T04:46:02.330Z,28.18
2023-05-24T04:48:29.536Z,28.72
2023-05-24T04:50:58.390Z,29.69
2023-05-24T04:53:25.714Z,29.54
2023-05-24T04:55:53.099Z,30.15
2023-05-24T04:58:20.093Z,30.66
2023-05-24T05:00:47.409Z,29.16
2023-05-24T05:03:14.533Z,28.56
2023-05-24T05:05:41.586Z,29.50
2023-05-24T05:08:08.721Z,29.58
2023-05-24T05:10:36.037Z,28.15
2023-05-24T05:13:03.215Z,25.91
2023-05-24T05:15:30.780Z,28.27
2023-05-24T05:17:57.752Z,29.54
2023-05-24T05:20:26.062Z,29.44
2023-05-24T05:22:55.997Z,28.83
2023-05-24T05:25:23.053Z,28.77
2023-05-24T05:27:49.956Z,29.58
2023-05-24T05:30:17.162Z,29.89
2023-05-24T05:32:44.366Z,27.45
2023-05-24T05:35:13.555Z,27.26
2023-05-24T05:37:40.517Z,26.95
2023-05-24T05:40:08.014Z,28.37
2023-05-24T05:42:35.200Z,29.48
2023-05-24T05:45:02.140Z,28.84
2023-05-24T05:47:29.068Z,29.08
2023-05-24T05:49:56.083Z,27.73
2023-05-24T05:52:23.223Z,28.64
2023-05-24T05:54:51.111Z,29.56
2023-05-24T05:57:24.440Z,30.08
2023-05-24T05:59:51.816Z,30.01
2023-05-24T06:02:19.313Z,28.46
2023-05-24T06:04:47.231Z,30.94
2023-05-24T06:07:14.368Z,30.21
2023-05-24T06:09:44.428Z,30.16
2023-05-24T06:12:11.386Z,27.95
2023-05-24T06:14:38.608Z,26.22
2023-05-24T06:17:06.864Z,27.43
2023-05-24T06:19:34.012Z,28.10
2023-05-24T06:22:01.853Z,29.50
2023-05-24T06:24:28.829Z,29.08
2023-05-24T06:26:56.712Z,30.58
2023-05-24T06:29:25.464Z,29.08
2023-05-24T06:31:53.325Z,27.70
2023-05-24T06:34:25.931Z,27.68
2023-05-24T06:36:54.183Z,28.38
2023-05-24T06:39:21.203Z,27.26
2023-05-24T06:41:51.610Z,27.82
2023-05-24T06:44:30.976Z,27.84
2023-05-24T06:47:01.377Z,25.86
2023-05-24T06:49:29.160Z,28.31
2023-05-24T06:51:56.419Z,28.55
2023-05-24T06:54:25.626Z,28.49
2023-05-24T06:56:52.748Z,29.07
2023-05-24T06:59:22.108Z,29.69
2023-05-24T07:01:51.694Z,28.69
2023-05-24T07:04:18.876Z,29.20
2023-05-24T07:06:46.024Z,28.16
2023-05-24T07:09:15.136Z,29.36
2023-05-24T07:11:42.169Z,26.98
2023-05-24T07:14:09.172Z,29.11
2023-05-24T07:16:36.499Z,26.89
2023-05-24T07:19:05.090Z,29.01
2023-05-24T07:21:32.220Z,30.26
2023-05-24T07:23:59.268Z,31.30
2023-05-24T07:26:26.630Z,30.46
2023-05-24T07:28:53.584Z,28.79
2023-05-24T07:31:20.467Z,26.95
2023-05-24T07:33:50.498Z,30.39
2023-05-24T07:36:17.512Z,28.11
2023-05-24T07:38:44.655Z,30.05
2023-05-24T07:41:14.350Z,27.49
2023-05-24T07:43:41.343Z,26.64
2023-05-24T07:46:08.458Z,30.91
2023-05-24T07:48:35.354Z,30.27
2023-05-24T07:51:04.818Z,32.27
2023-05-24T07:53:31.755Z,33.57
2023-05-24T07:55:58.769Z,31.39
2023-05-24T07:58:26.070Z,27.54
2023-05-24T08:00:53.118Z,29.09
2023-05-24T08:03:20.151Z,29.60
2023-05-24T08:05:47.264Z,26.99
2023-05-24T08:08:14.131Z,29.95
2023-05-24T08:10:44.128Z,29.88
2023-05-24T08:13:11.571Z,31.05
2023-05-24T08:15:38.603Z,28.96
2023-05-24T08:18:05.746Z,30.48
2023-05-24T08:20:36.365Z,30.27
2023-05-24T08:23:03.522Z,30.93
2023-05-24T08:25:30.823Z,31.40
2023-05-24T08:27:59.054Z,30.86
2023-05-24T08:30:26.083Z,30.30
2023-05-24T08:32:53.379Z,30.18
2023-05-24T08:35:21.902Z,31.81
2023-05-24T08:37:49.934Z,30.76
2023-05-24T08:40:17.469Z,32.37
2023-05-24T08:42:46.326Z,32.56
2023-05-24T08:45:15.412Z,28.11
2023-05-24T08:47:42.792Z,30.35
2023-05-24T08:50:11.036Z,29.26
2023-05-24T08:52:39.844Z,31.26
2023-05-24T08:55:07.555Z,31.64
2023-05-24T08:57:39.407Z,31.57
2023-05-24T09:00:12.054Z,31.37
2023-05-24T09:02:40.636Z,31.96
2023-05-24T09:05:12.604Z,30.57
2023-05-24T09:07:41.088Z,30.78
2023-05-24T09:10:11.777Z,32.89
2023-05-24T09:12:40.194Z,32.78
2023-05-24T09:15:08.706Z,32.85
2023-05-24T09:17:37.255Z,32.82
2023-05-24T09:20:09.068Z,31.60
2023-05-24T09:22:42.117Z,30.66
2023-05-24T09:25:12.753Z,30.68
2023-05-24T09:27:40.082Z,30.60
2023-05-24T09:30:11.253Z,31.82
2023-05-24T09:32:41.394Z,33.06
2023-05-24T09:35:10.201Z,32.66
2023-05-24T09:37:40.787Z,32.72
2023-05-24T09:40:19.256Z,31.70
2023-05-24T09:42:46.552Z,32.73
2023-05-24T09:45:13.548Z,31.55
2023-05-24T09:47:42.462Z,29.41
2023-05-24T09:50:14.824Z,28.96
2023-05-24T09:52:42.668Z,26.79
2023-05-24T09:55:16.941Z,28.43
2023-05-24T09:57:44.588Z,32.03
2023-05-24T10:00:17.006Z,31.66
2023-05-24T10:02:52.931Z,28.96
2023-05-24T10:05:21.243Z,30.33
2023-05-24T10:07:48.703Z,33.20
2023-05-24T10:10:15.892Z,34.14
2023-05-24T10:12:46.771Z,31.87
2023-05-24T10:15:16.672Z,30.20
2023-05-24T10:17:45.893Z,28.64
2023-05-24T10:20:12.975Z,32.06
2023-05-24T10:22:47.311Z,34.67
2023-05-24T10:25:21.830Z,34.25
2023-05-24T10:27:55.951Z,32.97
2023-05-24T10:30:34.442Z,32.73
2023-05-24T10:33:04.794Z,34.64
2023-05-24T10:35:33.920Z,32.35
2023-05-24T10:38:07.768Z,31.07
2023-05-24T10:40:35.731Z,32.56
2023-05-24T10:43:08.527Z,34.50
2023-05-24T10:45:42.929Z,32.18
2023-05-24T10:48:13.546Z,31.19
2023-05-24T10:50:42.681Z,34.18
2023-05-24T10:53:23.150Z,33.62
2023-05-24T10:56:06.923Z,32.70
2023-05-24T10:58:33.825Z,34.39
2023-05-24T11:01:00.835Z,33.91
2023-05-24T11:03:33.734Z,34.45
2023-05-24T11:06:05.285Z,29.71
2023-05-24T11:08:37.641Z,33.49
2023-05-24T11:11:23.305Z,34.28
2023-05-24T11:14:00.651Z,34.93
2023-05-24T11:16:39.514Z,32.58
2023-05-24T11:19:25.003Z,30.95
2023-05-24T11:21:58.830Z,30.09
2023-05-24T11:24:27.387Z,29.98
2023-05-24T11:26:54.437Z,30.25
2023-05-24T11:29:22.759Z,31.93
2023-05-24T11:31:55.139Z,32.87
2023-05-24T11:34:22.346Z,35.31
2023-05-24T11:36:50.181Z,34.40
2023-05-24T11:39:18.204Z,32.99
2023-05-24T11:41:45.544Z,32.61
2023-05-24T11:44:16.932Z,30.70
2023-05-24T11:46:44.102Z,33.24
2023-05-24T11:49:17.162Z,33.46
2023-05-24T11:51:44.370Z,34.70
2023-05-24T11:54:11.994Z,34.44
2023-05-24T11:56:39.046Z,32.23
2023-05-24T11:59:15.967Z,33.15
2023-05-24T12:01:44.284Z,35.01
2023-05-24T12:04:11.917Z,33.74
2023-05-24T12:06:41.925Z,32.89
2023-05-24T12:09:10.973Z,31.79
2023-05-24T12:11:50.139Z,33.96
2023-05-24T12:14:20.621Z,31.58
2023-05-24T12:16:47.962Z,34.76
2023-05-24T12:21:58.742Z,30.96
2023-05-24T12:24:27.303Z,33.94
2023-05-24T12:27:02.264Z,34.16
2023-05-24T12:29:37.169Z,34.63
2023-05-24T12:32:04.602Z,34.27
2023-05-24T12:34:32.278Z,32.37
2023-05-24T12:36:59.962Z,29.42
2023-05-24T12:39:36.740Z,32.82
2023-05-24T12:42:06.525Z,32.81
2023-05-24T12:44:38.002Z,34.78
2023-05-24T12:47:07.530Z,31.72
2023-05-24T12:49:34.888Z,34.43
2023-05-24T12:52:02.189Z,33.73
2023-05-24T12:54:30.351Z,35.14
2023-05-24T12:56:59.766Z,32.11
2023-05-24T12:59:28.317Z,32.58
2023-05-24T13:01:55.597Z,34.65
2023-05-24T13:04:26.099Z,36.80
2023-05-24T13:06:53.281Z,32.53
2023-05-24T13:09:22.501Z,33.10
2023-05-24T13:11:49.621Z,33.99
2023-05-24T13:14:18.121Z,32.02
2023-05-24T13:16:45.233Z,35.24
2023-05-24T13:19:12.526Z,35.84
2023-05-24T13:21:39.923Z,35.85
2023-05-24T13:24:07.703Z,35.38
2023-05-24T13:26:37.739Z,34.63
2023-05-24T13:31:40.707Z,34.08
2023-05-24T13:34:10.488Z,32.75
2023-05-24T13:36:38.177Z,31.30
2023-05-24T13:39:15.403Z,35.20
2023-05-24T13:41:44.356Z,30.91
2023-05-24T13:44:15.686Z,35.32
2023-05-24T13:46:43.651Z,35.25
2023-05-24T13:49:11.283Z,32.94
2023-05-24T13:51:39.503Z,31.03
2023-05-24T13:54:07.476Z,35.14
2023-05-24T13:56:35.231Z,35.67
2023-05-24T13:59:03.651Z,33.75
2023-05-24T14:01:31.338Z,33.56
2023-05-24T14:04:01.262Z,35.43
2023-05-24T14:06:28.276Z,35.54
2023-05-24T14:08:55.664Z,36.50
2023-05-24T14:11:22.881Z,34.23
2023-05-24T14:16:20.295Z,37.30
2023-05-24T14:18:49.251Z,38.16
2023-05-24T14:21:17.909Z,36.41
2023-05-24T14:23:44.972Z,34.14
2023-05-24T14:26:11.906Z,33.97
2023-05-24T14:28:38.945Z,37.01
2023-05-24T14:31:06.074Z,37.83
2023-05-24T14:33:32.998Z,32.85
2023-05-24T14:35:59.938Z,36.22
2023-05-24T14:38:26.843Z,35.77
2023-05-24T14:40:54.696Z,36.52
2023-05-24T14:43:21.681Z,31.72
2023-05-24T14:45:48.796Z,32.36
2023-05-24T14:48:16.753Z,33.71
2023-05-24T14:50:43.801Z,32.45
2023-05-24T14:53:14.201Z,31.76
2023-05-24T14:55:43.433Z,35.19
2023-05-24T14:58:12.064Z,34.20
2023-05-24T15:00:40.344Z,32.24
2023-05-24T15:03:09.244Z,32.16
2023-05-24T15:05:36.899Z,32.41
2023-05-24T15:08:05.605Z,32.28
2023-05-24T15:10:33.410Z,32.45
2023-05-24T15:13:01.427Z,34.40
2023-05-24T15:15:28.746Z,32.91
2023-05-24T15:17:55.727Z,32.03
2023-05-24T15:20:22.894Z,33.58
2023-05-24T15:22:49.899Z,34.99
2023-05-24T15:25:16.912Z,34.34
2023-05-24T15:27:44.477Z,34.02
2023-05-24T15:30:11.938Z,33.01
2023-05-24T15:32:38.761Z,33.52
2023-05-24T15:35:06.825Z,36.06
2023-05-24T15:37:33.935Z,37.37
2023-05-24T15:40:00.882Z,35.57
2023-05-24T15:42:28.493Z,35.48
2023-05-24T15:44:55.340Z,35.54
2023-05-24T15:47:22.824Z,37.29
2023-05-24T15:49:50.096Z,36.43
2023-05-24T15:52:17.292Z,35.69
2023-05-24T15:54:44.424Z,36.00
2023-05-24T15:57:11.722Z,35.25
2023-05-24T15:59:39.658Z,35.76
2023-05-24T16:02:08.320Z,35.66
2023-05-24T16:04:35.615Z,36.21
2023-05-24T16:07:02.872Z,37.84
2023-05-24T16:09:29.906Z,36.87
2023-05-24T16:11:56.804Z,37.33
2023-05-24T16:14:23.712Z,35.61
2023-05-24T16:16:50.725Z,37.25
2023-05-24T16:19:17.884Z,36.97
2023-05-24T16:21:44.835Z,35.74
2023-05-24T16:24:11.803Z,34.92
2023-05-24T16:26:38.941Z,34.65
2023-05-24T16:29:07.124Z,34.92
2023-05-24T16:31:34.317Z,34.21
2023-05-24T16:34:01.538Z,36.03
2023-05-24T16:36:28.572Z,34.47
2023-05-24T16:38:55.679Z,33.44
2023-05-24T16:41:22.679Z,33.11
2023-05-24T16:43:49.687Z,34.87
2023-05-24T16:46:16.694Z,33.66
2023-05-24T16:48:43.877Z,32.22
2023-05-24T16:51:11.197Z,30.24
2023-05-24T16:53:40.714Z,31.70
2023-05-24T16:56:07.722Z,32.12
2023-05-24T16:58:34.585Z,32.51
2023-05-24T17:01:01.517Z,31.86
2023-05-24T17:03:29.377Z,33.97
2023-05-24T17:06:03.447Z,32.87
2023-05-24T17:08:37.365Z,30.18
2023-05-24T17:11:05.349Z,30.10
2023-05-24T17:13:32.750Z,31.55
2023-05-24T17:16:00.535Z,32.56
2023-05-24T17:18:28.349Z,31.16
2023-05-24T17:21:03.259Z,31.88
2023-05-24T17:23:32.586Z,30.84
2023-05-24T17:26:01.077Z,31.48
2023-05-24T17:28:29.056Z,33.43
2023-05-24T17:31:01.192Z,32.93
2023-05-24T17:33:30.020Z,31.46
2023-05-24T17:35:57.660Z,33.73
2023-05-24T17:38:25.681Z,31.11
2023-05-24T17:40:57.157Z,31.71
2023-05-24T17:43:25.231Z,31.62
2023-05-24T17:45:52.332Z,33.69
2023-05-24T17:48:19.263Z,34.19
2023-05-24T17:50:46.251Z,35.22
2023-05-24T17:53:23.027Z,36.04
2023-05-24T17:55:58.031Z,33.18
2023-05-24T17:58:25.327Z,32.45
2023-05-24T18:00:52.583Z,34.05
2023-05-24T18:03:19.809Z,32.13
2023-05-24T18:05:46.742Z,32.78
2023-05-24T18:08:13.859Z,32.38
2023-05-24T18:10:41.012Z,31.61
2023-05-24T18:13:11.263Z,33.64
2023-05-24T18:15:38.166Z,33.16
2023-05-24T18:18:05.376Z,32.77
2023-05-24T18:20:32.379Z,31.06
2023-05-24T18:22:59.637Z,30.35
2023-05-24T18:25:26.666Z,30.57
2023-05-24T18:27:53.534Z,31.43
2023-05-24T18:30:20.648Z,33.31
2023-05-24T18:33:03.097Z,30.59
2023-05-24T18:35:32.267Z,31.25
2023-05-24T18:37:59.349Z,31.80
2023-05-24T18:40:26.631Z,31.43
2023-05-24T18:42:53.719Z,33.53
2023-05-24T18:45:20.926Z,34.10
2023-05-24T18:47:48.042Z,32.78
2023-05-24T18:50:15.191Z,34.17
2023-05-24T18:52:42.034Z,33.90
2023-05-24T18:55:12.025Z,32.55
2023-05-24T18:57:39.369Z,33.70
2023-05-24T19:00:07.374Z,32.68
2023-05-24T19:02:39.237Z,33.72
2023-05-24T19:05:09.655Z,30.79
2023-05-24T19:07:36.991Z,31.61
2023-05-24T19:10:04.377Z,32.14
2023-05-24T19:12:31.513Z,34.35
2023-05-24T19:14:58.551Z,34.91
2023-05-24T19:17:25.971Z,34.99
2023-05-24T19:19:53.186Z,35.41
2023-05-24T19:22:20.329Z,35.52
2023-05-24T19:24:47.417Z,35.38
2023-05-24T19:27:14.660Z,35.26
2023-05-24T19:29:41.775Z,34.49
2023-05-24T19:32:08.971Z,34.78
2023-05-24T19:34:37.466Z,35.02
2023-05-24T19:37:04.863Z,34.71
2023-05-24T19:39:31.918Z,34.43
2023-05-24T19:41:58.905Z,34.23
2023-05-24T19:44:25.926Z,34.16
2023-05-24T19:46:52.932Z,34.82
2023-05-24T19:49:19.880Z,34.90
2023-05-24T19:51:47.030Z,34.69
2023-05-24T19:54:14.839Z,34.44
2023-05-24T19:56:42.093Z,34.57
2023-05-24T19:59:09.124Z,34.35
2023-05-24T20:01:36.212Z,34.59
2023-05-24T20:04:03.870Z,34.24
2023-05-24T20:06:31.538Z,34.18
2023-05-24T20:08:59.835Z,33.98
2023-05-24T20:11:26.925Z,33.89
2023-05-24T20:13:55.930Z,33.82
2023-05-24T20:16:23.373Z,33.24
2023-05-24T20:18:50.649Z,33.57
2023-05-24T20:21:19.002Z,33.81
2023-05-24T20:23:45.946Z,33.41
2023-05-24T20:26:13.007Z,33.55
2023-05-24T20:28:39.880Z,33.37
2023-05-24T20:31:07.293Z,33.38
2023-05-24T20:33:38.117Z,33.28
2023-05-24T20:36:06.733Z,33.31
2023-05-24T20:38:33.804Z,33.26
2023-05-24T20:41:00.855Z,33.09
2023-05-24T20:43:27.695Z,32.29
2023-05-24T20:45:54.740Z,32.62
2023-05-24T20:48:21.824Z,32.76
2023-05-24T20:50:48.813Z,32.96
2023-05-24T20:53:15.922Z,32.88
2023-05-24T20:55:43.161Z,32.68
2023-05-24T20:58:10.760Z,32.75
2023-05-24T21:00:39.673Z,32.31
2023-05-24T21:03:07.645Z,32.21
2023-05-24T21:05:36.518Z,32.44
2023-05-24T21:08:04.031Z,32.02
2023-05-24T21:10:32.359Z,32.33
2023-05-24T21:12:59.687Z,32.59
2023-05-24T21:15:26.699Z,32.49
2023-05-24T21:17:53.624Z,32.47
2023-05-24T21:20:21.094Z,32.21
2023-05-24T21:22:48.147Z,32.23
2023-05-24T21:25:15.275Z,31.65
2023-05-24T21:27:42.176Z,31.91
2023-05-24T21:30:09.584Z,31.49
2023-05-24T21:32:36.654Z,31.79
2023-05-24T21:35:03.762Z,31.88
2023-05-24T21:37:30.822Z,32.03
2023-05-24T21:39:57.884Z,32.00
2023-05-24T21:42:24.902Z,32.27
2023-05-24T21:44:51.854Z,32.08
2023-05-24T21:47:18.671Z,32.16
2023-05-24T21:49:45.705Z,32.40
2023-05-24T21:52:12.655Z,31.68
2023-05-24T21:54:39.601Z,31.24
2023-05-24T21:57:07.346Z,30.95
2023-05-24T21:59:34.349Z,31.08
2023-05-24T22:02:01.332Z,31.09
2023-05-24T22:04:28.357Z,31.47
2023-05-24T22:06:55.408Z,31.79
2023-05-24T22:09:22.420Z,31.71
2023-05-24T22:11:49.417Z,31.66
2023-05-24T22:14:16.382Z,31.39
2023-05-24T22:16:43.389Z,31.13
2023-05-24T22:19:16.352Z,31.45
2023-05-24T22:21:43.782Z,31.23
2023-05-24T22:24:10.908Z,31.44
2023-05-24T22:26:38.326Z,30.49
2023-05-24T22:29:05.456Z,31.24
2023-05-24T22:31:36.185Z,31.39
2023-05-24T22:34:03.491Z,31.19
2023-05-24T22:36:33.368Z,31.52
2023-05-24T22:39:01.330Z,31.59
2023-05-24T22:41:28.597Z,31.40
2023-05-24T22:43:56.993Z,31.59
2023-05-24T22:46:24.832Z,31.75
2023-05-24T22:48:56.622Z,32.38
2023-05-24T22:51:23.965Z,32.61
2023-05-24T22:53:52.824Z,32.53
2023-05-24T22:56:19.882Z,32.07
2023-05-24T22:58:46.909Z,31.97
2023-05-24T23:01:16.766Z,32.26
2023-05-24T23:03:43.676Z,32.07
2023-05-24T23:06:12.052Z,31.85
2023-05-24T23:08:39.290Z,32.25
2023-05-24T23:11:10.359Z,32.24
2023-05-24T23:13:37.753Z,32.33
2023-05-24T23:16:05.577Z,32.13
2023-05-24T23:18:33.083Z,31.88
2023-05-24T23:21:03.136Z,31.85
2023-05-24T23:23:30.244Z,32.00
2023-05-24T23:25:57.112Z,31.92
2023-05-24T23:28:24.073Z,31.71
2023-05-24T23:30:51.139Z,32.08
2023-05-24T23:33:18.102Z,31.65
2023-05-24T23:35:45.431Z,32.02
2023-05-24T23:38:13.823Z,32.22
2023-05-24T23:40:40.888Z,32.26
2023-05-24T23:43:08.325Z,32.09
2023-05-24T23:45:35.259Z,32.29
2023-05-24T23:48:02.487Z,32.24
2023-05-24T23:50:33.060Z,32.31
2023-05-24T23:53:04.986Z,32.40
2023-05-24T23:55:31.959Z,32.42
2023-05-24T23:58:00.447Z,32.59
